Logo Brunsvigian Airlines

Die löwenstarke Airline aus Braunschweig

Charts auf der Seite von VATEUD

EDDF 042320Z 17005KT CAVOK 17/15 Q1017 NOSIG

flugnummerleerzeichenankunftleerzeichenplanmaessig
ABS101__BRAUNSCHWEIG_____07doppelpunkt40

flugnummerleerzeichenankunftleerzeichenplanmaessig
ABS100__BRAUNSCHWEIG_____07doppelpunkt00

Der Flughafen Frankfurt ist der größte Verkehrsflughafen Deutschlands. Von hier aus bestehen Anbindungen zu allen internationalen Flughäfen. Mit unserer Morgenverbindung haben Sie die Möglichkeit Anschlussflüge in die ganze Welt wahrzunehmen.

Kontakt   Impressum

Valid HTML 4.01 Transitional CSS ist valide!